createdAt,value
2022-08-16T00:02:56.331Z,99.90
2022-08-16T00:08:02.105Z,99.90
2022-08-16T00:13:12.011Z,99.90
2022-08-16T00:18:19.581Z,99.90
2022-08-16T00:23:34.975Z,99.90
2022-08-16T00:28:45.053Z,99.90
2022-08-16T00:33:53.803Z,99.90
2022-08-16T00:39:01.600Z,99.90
2022-08-16T00:44:11.155Z,99.90
2022-08-16T00:49:19.681Z,99.90
2022-08-16T00:54:29.542Z,99.90
2022-08-16T00:59:54.855Z,99.90
2022-08-16T01:05:10.812Z,99.90
2022-08-16T01:10:17.578Z,99.90
2022-08-16T01:15:23.352Z,99.90
2022-08-16T01:20:36.753Z,99.90
2022-08-16T01:26:00.284Z,99.90
2022-08-16T01:31:14.012Z,99.90
2022-08-16T01:36:18.757Z,99.90
2022-08-16T01:41:30.682Z,99.90
2022-08-16T01:46:44.334Z,99.90
2022-08-16T01:52:06.848Z,99.90
2022-08-16T01:57:40.008Z,99.90
2022-08-16T02:02:59.225Z,99.90
2022-08-16T02:08:06.315Z,99.90
2022-08-16T02:13:14.750Z,99.90
2022-08-16T02:18:19.200Z,99.90
2022-08-16T02:23:26.021Z,99.90
2022-08-16T02:28:36.054Z,99.90
2022-08-16T02:33:44.496Z,99.90
2022-08-16T02:39:03.229Z,99.90
2022-08-16T02:44:13.870Z,99.90
2022-08-16T02:49:23.108Z,99.90
2022-08-16T02:54:48.297Z,99.90
2022-08-16T03:00:34.677Z,99.90
2022-08-16T03:05:42.031Z,99.90
2022-08-16T03:10:50.423Z,99.90
2022-08-16T03:16:32.971Z,99.90
2022-08-16T03:21:37.698Z,99.90
2022-08-16T03:26:45.044Z,99.90
2022-08-16T03:31:52.924Z,99.90
2022-08-16T03:37:02.231Z,99.90
2022-08-16T03:42:12.560Z,99.90
2022-08-16T03:47:44.081Z,99.90
2022-08-16T03:53:00.528Z,99.90
2022-08-16T03:58:08.337Z,99.90
2022-08-16T04:03:14.585Z,99.90
2022-08-16T04:08:24.611Z,99.90
2022-08-16T04:14:01.849Z,99.90
2022-08-16T04:19:04.724Z,99.90
2022-08-16T04:24:10.613Z,99.90
2022-08-16T04:29:23.305Z,99.90
2022-08-16T04:34:39.574Z,99.90
2022-08-16T04:39:55.593Z,99.90
2022-08-16T04:45:04.496Z,99.90
2022-08-16T04:50:18.166Z,99.90
2022-08-16T04:55:37.655Z,99.90
2022-08-16T05:00:43.422Z,99.90
2022-08-16T05:05:58.915Z,99.90
2022-08-16T05:11:10.945Z,99.90
2022-08-16T05:16:23.160Z,99.90
2022-08-16T05:21:43.821Z,99.90
2022-08-16T05:26:51.530Z,99.90
2022-08-16T05:31:57.801Z,99.90
2022-08-16T05:37:06.553Z,99.90
2022-08-16T05:42:21.550Z,99.90
2022-08-16T05:47:45.334Z,99.90
2022-08-16T05:53:00.832Z,99.90
2022-08-16T05:58:07.255Z,99.90
2022-08-16T06:03:17.719Z,99.90
2022-08-16T06:08:42.370Z,99.90
2022-08-16T06:13:55.319Z,99.90
2022-08-16T06:19:13.411Z,99.90
2022-08-16T06:24:55.164Z,99.90
2022-08-16T06:30:04.618Z,99.90
2022-08-16T06:35:19.061Z,99.90
2022-08-16T06:40:57.948Z,99.90
2022-08-16T06:46:37.746Z,99.90
2022-08-16T06:52:58.459Z,99.90
2022-08-16T07:05:20.605Z,99.90
2022-08-16T07:11:47.840Z,99.90
2022-08-16T07:17:45.322Z,99.90
2022-08-16T07:23:36.995Z,99.90
2022-08-16T07:28:55.360Z,99.90
2022-08-16T07:34:05.423Z,96.50
2022-08-16T07:39:17.746Z,94.40
2022-08-16T07:44:26.749Z,92.30
2022-08-16T07:49:34.366Z,90.80
2022-08-16T07:54:45.927Z,90.20
2022-08-16T07:59:57.301Z,86.90
2022-08-16T08:05:05.548Z,86.40
2022-08-16T08:10:17.399Z,83.70
2022-08-16T08:15:37.194Z,78.10
2022-08-16T08:20:45.572Z,75.30
2022-08-16T08:26:16.863Z,70.70
2022-08-16T08:31:25.388Z,66.20
2022-08-16T08:36:37.016Z,63.90
2022-08-16T08:42:07.005Z,61.90
2022-08-16T08:47:14.982Z,60.10
2022-08-16T08:52:34.801Z,58.10
2022-08-16T08:57:44.933Z,56.80
2022-08-16T09:03:10.362Z,54.60
2022-08-16T09:08:22.211Z,52.70
2022-08-16T09:13:47.091Z,49.60
2022-08-16T09:19:00.778Z,47.40
2022-08-16T09:24:11.323Z,46.30
2022-08-16T09:29:23.922Z,47.00
2022-08-16T09:34:49.636Z,46.30
2022-08-16T09:39:59.725Z,47.30
2022-08-16T09:45:10.798Z,44.40
2022-08-16T09:50:22.819Z,42.40
2022-08-16T09:55:29.011Z,40.80
2022-08-16T10:00:42.649Z,40.60
2022-08-16T10:05:50.232Z,39.90
2022-08-16T10:11:14.251Z,39.20
2022-08-16T10:16:29.330Z,38.50
2022-08-16T10:21:35.282Z,38.20
2022-08-16T10:27:20.517Z,37.30
2022-08-16T10:32:08.696Z,37.50
2022-08-16T10:37:13.709Z,36.60
2022-08-16T10:42:20.524Z,36.20
2022-08-16T10:47:26.387Z,35.40
2022-08-16T10:57:40.939Z,33.40
2022-08-16T11:03:41.812Z,33.20
2022-08-16T11:08:16.430Z,33.60
2022-08-16T11:19:06.377Z,32.50
2022-08-16T11:24:39.649Z,31.70
2022-08-16T11:29:44.080Z,31.80
2022-08-16T11:35:10.392Z,32.20
2022-08-16T11:40:14.632Z,31.40
2022-08-16T11:45:25.457Z,31.80
2022-08-16T11:50:33.313Z,30.90
2022-08-16T11:55:40.227Z,30.60
2022-08-16T12:00:52.757Z,31.10
2022-08-16T12:05:59.488Z,31.00
2022-08-16T12:11:06.065Z,30.40
2022-08-16T12:16:17.410Z,30.50
2022-08-16T12:21:25.435Z,30.00
2022-08-16T12:26:40.898Z,30.10
2022-08-16T12:32:01.134Z,29.40
2022-08-16T12:37:11.918Z,29.10
2022-08-16T12:42:20.452Z,29.40
2022-08-16T12:47:45.101Z,29.00
2022-08-16T12:52:52.419Z,29.10
2022-08-16T12:58:00.479Z,28.70
2022-08-16T13:03:11.962Z,29.00
2022-08-16T13:08:22.748Z,28.70
2022-08-16T13:13:41.032Z,29.00
2022-08-16T13:18:52.848Z,29.00
2022-08-16T13:24:00.601Z,28.90
2022-08-16T13:29:09.599Z,28.60
2022-08-16T13:34:18.421Z,28.40
2022-08-16T13:39:32.952Z,28.50
2022-08-16T13:44:48.609Z,28.50
2022-08-16T13:50:07.873Z,28.70
2022-08-16T13:55:18.044Z,29.10
2022-08-16T14:00:26.517Z,28.90
2022-08-16T14:05:33.016Z,29.10
2022-08-16T14:10:37.870Z,29.40
2022-08-16T14:15:45.518Z,29.10
2022-08-16T14:20:53.597Z,28.60
2022-08-16T14:25:58.860Z,28.40
2022-08-16T14:31:04.224Z,28.20
2022-08-16T14:36:11.815Z,28.40
2022-08-16T14:41:24.440Z,28.90
2022-08-16T14:46:29.358Z,29.00
2022-08-16T14:51:36.750Z,29.20
2022-08-16T14:56:55.256Z,29.40
2022-08-16T15:02:01.779Z,29.20
2022-08-16T15:07:13.151Z,29.30
2022-08-16T15:12:26.684Z,29.20
2022-08-16T15:17:39.475Z,29.20
2022-08-16T15:22:52.154Z,29.20
2022-08-16T15:27:56.848Z,29.50
2022-08-16T15:33:05.447Z,29.50
2022-08-16T15:43:43.059Z,29.90
2022-08-16T15:48:58.806Z,29.90
2022-08-16T15:54:29.297Z,30.30
2022-08-16T15:59:48.146Z,29.60
2022-08-16T16:04:54.300Z,29.90
2022-08-16T16:17:51.313Z,29.20
2022-08-16T16:23:53.688Z,29.40
2022-08-16T16:29:15.525Z,29.40
2022-08-16T16:34:25.749Z,29.50
2022-08-16T16:39:37.344Z,29.70
2022-08-16T16:44:50.807Z,30.00
2022-08-16T16:49:57.379Z,30.70
2022-08-16T16:55:03.065Z,30.80
2022-08-16T17:00:30.004Z,30.50
2022-08-16T17:05:37.809Z,30.60
2022-08-16T17:10:46.062Z,32.40
2022-08-16T17:15:56.653Z,34.90
2022-08-16T17:21:01.463Z,36.70
2022-08-16T17:26:10.534Z,37.60
2022-08-16T17:31:16.547Z,37.90
2022-08-16T17:36:36.322Z,38.70
2022-08-16T17:41:41.621Z,39.70
2022-08-16T17:46:50.908Z,40.30
2022-08-16T17:51:56.535Z,40.20
2022-08-16T17:57:01.403Z,40.60
2022-08-16T18:02:42.736Z,41.60
2022-08-16T18:07:31.555Z,41.70
2022-08-16T18:12:54.305Z,42.10
2022-08-16T18:18:01.908Z,43.40
2022-08-16T18:23:10.538Z,44.30
2022-08-16T18:28:19.567Z,44.30
2022-08-16T18:33:28.026Z,45.10
2022-08-16T18:38:34.831Z,45.70
2022-08-16T18:44:24.342Z,48.40
2022-08-16T18:49:08.200Z,49.70
2022-08-16T18:54:16.276Z,51.60
2022-08-16T18:59:20.940Z,51.60
2022-08-16T19:04:55.236Z,52.90
2022-08-16T19:09:51.462Z,54.80
2022-08-16T19:14:58.101Z,56.40
2022-08-16T19:20:10.513Z,58.00
2022-08-16T19:25:19.302Z,59.80
2022-08-16T19:30:24.308Z,61.30
2022-08-16T19:35:30.123Z,62.40
2022-08-16T19:40:37.644Z,63.80
2022-08-16T19:45:46.145Z,64.60
2022-08-16T19:50:52.349Z,65.30
2022-08-16T19:55:57.256Z,66.30
2022-08-16T20:01:01.504Z,67.00
2022-08-16T20:06:07.784Z,67.10
2022-08-16T20:11:15.448Z,68.70
2022-08-16T20:16:19.753Z,69.40
2022-08-16T20:21:25.586Z,69.80
2022-08-16T20:26:30.519Z,71.90
2022-08-16T20:31:34.942Z,72.80
2022-08-16T20:36:41.040Z,72.90
2022-08-16T20:41:45.577Z,73.80
2022-08-16T20:46:50.104Z,74.40
2022-08-16T20:51:59.370Z,76.20
2022-08-16T20:57:05.163Z,77.30
2022-08-16T21:02:12.340Z,77.50
2022-08-16T21:07:19.658Z,77.80
2022-08-16T21:12:23.990Z,79.60
2022-08-16T21:17:31.360Z,80.80
2022-08-16T21:22:37.245Z,81.10
2022-08-16T21:28:38.753Z,80.90
2022-08-16T21:33:09.143Z,81.40
2022-08-16T21:38:29.419Z,81.20
2022-08-16T21:43:35.507Z,81.30
2022-08-16T21:48:40.635Z,81.00
2022-08-16T21:53:46.807Z,81.10
2022-08-16T21:58:52.804Z,81.20
2022-08-16T22:04:35.627Z,81.20
2022-08-16T22:09:24.071Z,79.70
2022-08-16T22:14:28.517Z,79.00
2022-08-16T22:19:32.765Z,78.90
2022-08-16T22:24:39.484Z,78.70
2022-08-16T22:29:44.017Z,79.20
2022-08-16T22:34:48.571Z,79.10
2022-08-16T22:39:54.248Z,79.40
2022-08-16T22:44:58.938Z,79.70
2022-08-16T22:50:03.275Z,80.00
2022-08-16T22:55:10.241Z,79.70
2022-08-16T23:00:18.637Z,79.80
2022-08-16T23:05:26.862Z,80.00
2022-08-16T23:10:32.720Z,80.40
2022-08-16T23:15:43.821Z,79.70
2022-08-16T23:20:49.419Z,79.90
2022-08-16T23:25:59.227Z,80.70
2022-08-16T23:31:07.283Z,80.20
2022-08-16T23:36:12.825Z,82.60
2022-08-16T23:41:18.531Z,82.20
2022-08-16T23:46:22.972Z,81.00
2022-08-16T23:51:27.269Z,80.10
2022-08-16T23:56:40.294Z,78.70
